createdAt,value
2019-05-25T00:03:36.558Z,100.00
2019-05-25T00:06:20.110Z,100.00
2019-05-25T00:09:09.883Z,100.00
2019-05-25T00:12:00.042Z,100.00
2019-05-25T00:15:08.919Z,100.00
2019-05-25T00:17:58.908Z,100.00
2019-05-25T00:20:48.659Z,100.00
2019-05-25T00:23:38.385Z,100.00
2019-05-25T00:26:20.769Z,100.00
2019-05-25T00:29:10.566Z,100.00
2019-05-25T00:32:15.974Z,100.00
2019-05-25T00:34:58.696Z,100.00
2019-05-25T00:37:48.443Z,100.00
2019-05-25T00:40:30.856Z,100.00
2019-05-25T00:43:20.594Z,100.00
2019-05-25T00:49:06.075Z,100.00
2019-05-25T00:51:36.758Z,100.00
2019-05-25T00:54:28.191Z,100.00
2019-05-25T00:57:10.943Z,100.00
2019-05-25T01:00:00.733Z,100.00
2019-05-25T01:02:50.545Z,100.00
2019-05-25T01:05:40.337Z,100.00
2019-05-25T01:08:22.983Z,100.00
2019-05-25T01:11:12.704Z,100.00
2019-05-25T01:17:05.891Z,100.00
2019-05-25T01:19:48.751Z,100.00
2019-05-25T01:22:38.486Z,100.00
2019-05-25T01:25:28.179Z,100.00
2019-05-25T01:28:10.656Z,100.00
2019-05-25T01:31:00.477Z,100.00
2019-05-25T01:33:50.246Z,100.00
2019-05-25T01:36:40.173Z,100.00
2019-05-25T01:39:29.998Z,100.00
2019-05-25T01:45:28.554Z,100.00
2019-05-25T01:48:11.557Z,100.00
2019-05-25T01:51:01.428Z,100.00
2019-05-25T01:53:51.206Z,100.00
2019-05-25T01:56:40.977Z,100.00
2019-05-25T02:02:23.917Z,100.00
2019-05-25T02:05:14.075Z,100.00
2019-05-25T02:08:03.906Z,100.00
2019-05-25T02:11:07.008Z,100.00
2019-05-25T02:13:49.219Z,100.00
2019-05-25T02:16:38.915Z,100.00
2019-05-25T02:19:21.283Z,100.00
2019-05-25T02:22:10.998Z,100.00
2019-05-25T02:24:52.921Z,100.00
2019-05-25T02:27:42.720Z,100.00
2019-05-25T02:30:26.337Z,100.00
2019-05-25T02:33:16.054Z,100.00
2019-05-25T02:35:58.758Z,100.00
2019-05-25T02:38:48.473Z,100.00
2019-05-25T02:41:30.549Z,100.00
2019-05-25T02:47:21.394Z,100.00
2019-05-25T02:50:11.107Z,100.00
2019-05-25T02:52:54.456Z,100.00
2019-05-25T02:55:44.196Z,100.00
2019-05-25T03:04:21.468Z,100.00
2019-05-25T03:07:11.280Z,100.00
2019-05-25T03:09:53.695Z,100.00
2019-05-25T03:18:52.578Z,100.00
2019-05-25T03:21:35.238Z,100.00
2019-05-25T03:24:25.272Z,100.00
2019-05-25T03:30:37.315Z,100.00
2019-05-25T03:33:27.092Z,100.00
2019-05-25T03:36:16.873Z,100.00
2019-05-25T03:39:08.188Z,100.00
2019-05-25T03:41:57.968Z,100.00
2019-05-25T03:44:47.698Z,100.00
2019-05-25T03:50:40.693Z,100.00
2019-05-25T03:53:22.975Z,100.00
2019-05-25T03:56:12.716Z,100.00
2019-05-25T03:58:55.378Z,100.00
2019-05-25T04:01:45.148Z,100.00
2019-05-25T04:04:34.931Z,100.00
2019-05-25T04:07:17.192Z,100.00
2019-05-25T04:13:21.075Z,100.00
2019-05-25T04:16:10.874Z,100.00
2019-05-25T04:19:00.648Z,100.00
2019-05-25T04:22:09.539Z,100.00
2019-05-25T04:24:59.280Z,100.00
2019-05-25T04:27:48.980Z,100.00
2019-05-25T04:30:31.473Z,100.00
2019-05-25T04:33:21.190Z,100.00
2019-05-25T04:36:10.953Z,100.00
2019-05-25T04:39:00.740Z,100.00
2019-05-25T04:41:50.515Z,100.00
2019-05-25T04:44:40.245Z,100.00
2019-05-25T04:47:30.105Z,100.00
2019-05-25T04:50:19.907Z,100.00
2019-05-25T04:53:09.692Z,100.00
2019-05-25T05:01:55.989Z,100.00
2019-05-25T05:04:45.779Z,100.00
2019-05-25T05:07:35.486Z,100.00
2019-05-25T05:10:17.827Z,100.00
2019-05-25T05:12:48.490Z,100.00
2019-05-25T05:18:27.798Z,100.00
2019-05-25T05:20:58.500Z,100.00
2019-05-25T05:23:48.369Z,100.00
2019-05-25T05:26:30.822Z,100.00
2019-05-25T05:29:39.662Z,100.00
2019-05-25T05:32:29.462Z,100.00
2019-05-25T05:35:19.270Z,100.00
2019-05-25T05:38:09.047Z,100.00
2019-05-25T05:41:18.183Z,100.00
2019-05-25T05:44:08.044Z,100.00
2019-05-25T05:50:12.430Z,100.00
2019-05-25T05:52:43.064Z,100.00
2019-05-25T05:55:33.176Z,100.00
2019-05-25T05:58:15.296Z,100.00
2019-05-25T06:00:58.498Z,100.00
2019-05-25T06:03:48.331Z,100.00
2019-05-25T06:06:38.239Z,100.00
2019-05-25T06:09:28.063Z,100.00
2019-05-25T06:12:36.910Z,100.00
2019-05-25T06:15:26.696Z,100.00
2019-05-25T06:18:16.760Z,100.00
2019-05-25T06:21:06.706Z,100.00
2019-05-25T06:23:56.482Z,100.00
2019-05-25T06:26:46.235Z,100.00
2019-05-25T06:29:35.996Z,100.00
2019-05-25T06:32:27.257Z,100.00
2019-05-25T06:38:00.214Z,100.00
2019-05-25T06:53:18.988Z,100.00
2019-05-25T06:56:03.290Z,100.00
2019-05-25T06:58:45.740Z,100.00
2019-05-25T07:01:35.548Z,100.00
2019-05-25T07:04:25.906Z,100.00
2019-05-25T07:07:16.282Z,100.00
2019-05-25T07:10:06.572Z,100.00
2019-05-25T07:12:56.328Z,100.00
2019-05-25T07:15:46.714Z,100.00
2019-05-25T07:18:29.695Z,100.00
2019-05-25T07:21:00.420Z,100.00
2019-05-25T07:23:50.153Z,100.00
2019-05-25T07:26:33.081Z,100.00
2019-05-25T07:29:41.960Z,100.00
2019-05-25T07:32:31.751Z,100.00
2019-05-25T07:35:21.563Z,100.00
2019-05-25T07:38:11.329Z,100.00
2019-05-25T07:41:02.075Z,100.00
2019-05-25T07:44:04.849Z,100.00
2019-05-25T07:46:47.696Z,100.00
2019-05-25T07:49:37.428Z,100.00
2019-05-25T07:52:20.202Z,100.00
2019-05-25T07:55:10.479Z,100.00
2019-05-25T07:57:53.599Z,100.00
2019-05-25T08:00:43.921Z,100.00
2019-05-25T08:03:26.580Z,100.00
2019-05-25T08:06:16.873Z,100.00
2019-05-25T08:09:00.098Z,100.00
2019-05-25T08:11:50.414Z,100.00
2019-05-25T08:14:32.931Z,100.00
2019-05-25T08:17:23.590Z,100.00
2019-05-25T08:20:06.707Z,100.00
2019-05-25T08:22:57.060Z,100.00
2019-05-25T08:25:47.613Z,100.00
2019-05-25T08:28:37.971Z,100.00
2019-05-25T08:31:28.364Z,100.00
2019-05-25T08:34:18.777Z,100.00
2019-05-25T08:37:28.444Z,100.00
2019-05-25T08:40:12.053Z,100.00
2019-05-25T08:42:43.293Z,100.00
2019-05-25T08:45:33.702Z,100.00
2019-05-25T08:48:17.906Z,100.00
2019-05-25T08:51:01.158Z,100.00
2019-05-25T08:53:51.661Z,100.00
2019-05-25T08:56:41.965Z,100.00
2019-05-25T08:59:25.698Z,100.00
2019-05-25T09:02:16.164Z,88.25
2019-05-25T09:05:06.762Z,92.01
2019-05-25T09:07:57.204Z,86.70
2019-05-25T09:10:47.640Z,92.83
2019-05-25T09:13:38.010Z,94.13
2019-05-25T09:16:28.398Z,93.60
2019-05-25T09:19:18.729Z,93.63
2019-05-25T09:22:03.431Z,94.46
2019-05-25T09:24:53.650Z,92.06
2019-05-25T09:27:36.288Z,89.11
2019-05-25T09:30:26.662Z,83.71
2019-05-25T09:33:36.121Z,83.36
2019-05-25T09:36:26.476Z,87.33
2019-05-25T09:41:54.699Z,96.45
2019-05-25T09:44:45.000Z,88.77
2019-05-25T09:47:28.582Z,89.02
2019-05-25T09:50:18.984Z,90.71
2019-05-25T09:53:01.610Z,86.15
2019-05-25T09:55:52.075Z,95.45
2019-05-25T09:58:34.964Z,96.17
2019-05-25T10:01:25.574Z,80.58
2019-05-25T10:04:15.888Z,91.03
2019-05-25T10:07:06.309Z,93.23
2019-05-25T10:09:56.686Z,90.30
2019-05-25T10:12:47.090Z,94.11
2019-05-25T10:15:50.618Z,90.56
2019-05-25T10:18:33.219Z,87.51
2019-05-25T10:21:23.540Z,93.90
2019-05-25T10:24:06.212Z,98.63
2019-05-25T10:26:56.546Z,96.33
2019-05-25T10:29:46.847Z,99.24
2019-05-25T10:32:31.733Z,100.00
2019-05-25T10:35:41.213Z,100.00
2019-05-25T10:38:31.668Z,100.00
2019-05-25T10:41:22.091Z,100.00
2019-05-25T10:44:11.915Z,100.00
2019-05-25T10:47:01.706Z,100.00
2019-05-25T10:49:51.494Z,100.00
2019-05-25T10:52:41.984Z,100.00
2019-05-25T10:58:29.977Z,100.00
2019-05-25T11:01:19.736Z,100.00
2019-05-25T11:04:02.336Z,100.00
2019-05-25T11:06:52.079Z,100.00
2019-05-25T11:09:36.225Z,100.00
2019-05-25T11:12:26.216Z,100.00
2019-05-25T11:15:14.454Z,100.00
2019-05-25T11:18:04.927Z,100.00
2019-05-25T11:20:47.279Z,100.00
2019-05-25T11:23:37.184Z,100.00
2019-05-25T11:26:19.333Z,100.00
2019-05-25T11:29:09.122Z,100.00
2019-05-25T11:31:56.650Z,100.00
2019-05-25T11:34:43.139Z,100.00
2019-05-25T11:37:25.589Z,100.00
2019-05-25T11:40:16.361Z,100.00
2019-05-25T11:42:47.130Z,100.00
2019-05-25T11:45:36.846Z,100.00
2019-05-25T11:51:22.278Z,100.00
2019-05-25T11:54:12.569Z,100.00
2019-05-25T11:56:54.867Z,100.00
2019-05-25T11:59:38.100Z,100.00
2019-05-25T12:02:21.874Z,100.00
2019-05-25T12:05:32.831Z,100.00
2019-05-25T12:08:23.223Z,100.00
2019-05-25T12:11:32.727Z,100.00
2019-05-25T12:14:23.117Z,100.00
2019-05-25T12:17:13.484Z,100.00
2019-05-25T12:20:04.006Z,100.00
2019-05-25T12:23:13.571Z,100.00
2019-05-25T12:25:56.555Z,100.00
2019-05-25T12:28:46.908Z,100.00
2019-05-25T12:31:37.444Z,100.00
2019-05-25T12:34:20.166Z,100.00
2019-05-25T12:37:22.622Z,100.00
2019-05-25T12:40:05.626Z,100.00
2019-05-25T12:42:55.946Z,100.00
2019-05-25T12:45:42.003Z,100.00
2019-05-25T12:48:30.721Z,100.00
2019-05-25T12:51:13.556Z,100.00
2019-05-25T12:54:03.846Z,100.00
2019-05-25T12:56:46.832Z,100.00
2019-05-25T12:59:37.165Z,100.00
2019-05-25T13:02:23.716Z,100.00
2019-05-25T13:05:34.907Z,100.00
2019-05-25T13:08:19.014Z,100.00
2019-05-25T13:11:09.673Z,100.00
2019-05-25T13:13:53.224Z,100.00
2019-05-25T13:16:42.978Z,100.00
2019-05-25T13:19:25.280Z,100.00
2019-05-25T13:22:14.991Z,100.00
2019-05-25T13:24:57.315Z,100.00
2019-05-25T13:27:47.109Z,100.00
2019-05-25T13:30:29.468Z,100.00
2019-05-25T13:33:19.780Z,100.00
2019-05-25T13:36:04.079Z,100.00
2019-05-25T13:38:53.803Z,100.00
2019-05-25T13:41:44.106Z,100.00
2019-05-25T13:44:26.588Z,100.00
2019-05-25T13:47:16.987Z,100.00
2019-05-25T13:50:19.466Z,100.00
2019-05-25T13:53:02.124Z,100.00
2019-05-25T13:56:10.983Z,100.00
2019-05-25T14:01:42.040Z,100.00
2019-05-25T14:04:32.345Z,100.00
2019-05-25T14:07:15.140Z,100.00
2019-05-25T14:10:05.823Z,100.00
2019-05-25T14:13:15.183Z,100.00
2019-05-25T14:16:06.789Z,100.00
2019-05-25T14:18:48.745Z,100.00
2019-05-25T14:21:39.199Z,100.00
2019-05-25T14:24:29.481Z,100.00
2019-05-25T14:27:19.790Z,100.00
2019-05-25T14:30:02.054Z,100.00
2019-05-25T14:32:51.759Z,100.00
2019-05-25T14:35:41.589Z,100.00
2019-05-25T14:38:25.379Z,100.00
2019-05-25T14:41:15.143Z,100.00
2019-05-25T14:44:04.991Z,100.00
2019-05-25T14:46:48.463Z,100.00
2019-05-25T14:49:38.261Z,100.00
2019-05-25T14:52:28.079Z,100.00
2019-05-25T14:55:18.083Z,100.00
2019-05-25T14:58:07.801Z,100.00
2019-05-25T15:00:57.537Z,100.00
2019-05-25T15:03:47.305Z,100.00
2019-05-25T15:06:29.305Z,100.00
2019-05-25T15:09:19.043Z,100.00
2019-05-25T15:12:01.600Z,100.00
2019-05-25T15:14:51.420Z,100.00
2019-05-25T15:17:43.166Z,100.00
2019-05-25T15:20:26.481Z,100.00
2019-05-25T15:23:16.282Z,100.00
2019-05-25T15:26:06.111Z,100.00
2019-05-25T15:28:56.871Z,100.00
2019-05-25T15:31:46.743Z,100.00
2019-05-25T15:34:36.498Z,100.00
2019-05-25T15:37:26.282Z,100.00
2019-05-25T15:40:16.133Z,100.00
2019-05-25T15:43:06.108Z,100.00
2019-05-25T15:46:15.005Z,100.00
2019-05-25T15:48:57.769Z,100.00
2019-05-25T15:51:47.544Z,100.00
2019-05-25T15:54:29.810Z,100.00
2019-05-25T15:57:19.985Z,100.00
2019-05-25T16:00:02.924Z,100.00
2019-05-25T16:05:54.928Z,100.00
2019-05-25T16:11:32.742Z,100.00
2019-05-25T16:14:23.135Z,100.00
2019-05-25T16:17:12.956Z,100.00
2019-05-25T16:20:03.362Z,100.00
2019-05-25T16:22:53.756Z,100.00
2019-05-25T16:25:44.088Z,100.00
2019-05-25T16:28:33.924Z,100.00
2019-05-25T16:31:23.638Z,100.00
2019-05-25T16:34:13.933Z,100.00
2019-05-25T16:37:04.416Z,100.00
2019-05-25T16:39:47.663Z,100.00
2019-05-25T16:42:37.394Z,100.00
2019-05-25T16:45:21.162Z,100.00
2019-05-25T16:48:11.478Z,100.00
2019-05-25T16:50:54.913Z,100.00
2019-05-25T16:53:45.187Z,100.00
2019-05-25T16:56:35.486Z,100.00
2019-05-25T16:59:18.512Z,100.00
2019-05-25T17:02:08.806Z,100.00
2019-05-25T17:04:53.368Z,100.00
2019-05-25T17:07:36.136Z,100.00
2019-05-25T17:10:25.889Z,100.00
2019-05-25T17:13:09.456Z,100.00
2019-05-25T17:15:59.250Z,100.00
2019-05-25T17:18:49.790Z,100.00
2019-05-25T17:21:40.158Z,100.00
2019-05-25T17:24:29.986Z,100.00
2019-05-25T17:27:20.402Z,100.00
2019-05-25T17:30:10.677Z,100.00
2019-05-25T17:33:00.428Z,100.00
2019-05-25T17:35:50.149Z,100.00
2019-05-25T17:38:39.874Z,100.00
2019-05-25T17:41:22.244Z,100.00
2019-05-25T17:44:11.969Z,100.00
2019-05-25T17:46:54.491Z,100.00
2019-05-25T17:49:44.220Z,100.00
2019-05-25T17:52:26.517Z,100.00
2019-05-25T17:55:16.219Z,100.00
2019-05-25T17:57:46.909Z,100.00
2019-05-25T18:00:55.672Z,100.00
2019-05-25T18:03:38.081Z,100.00
2019-05-25T18:06:27.798Z,100.00
2019-05-25T18:09:09.981Z,100.00
2019-05-25T18:11:59.734Z,100.00
2019-05-25T18:14:42.930Z,100.00
2019-05-25T18:20:37.851Z,100.00
2019-05-25T18:23:19.903Z,100.00
2019-05-25T18:26:09.654Z,100.00
2019-05-25T18:28:51.723Z,100.00
2019-05-25T18:31:41.507Z,100.00
2019-05-25T18:34:31.254Z,100.00
2019-05-25T18:37:20.991Z,100.00
2019-05-25T18:40:03.439Z,100.00
2019-05-25T18:42:53.330Z,100.00
2019-05-25T18:45:43.052Z,100.00
2019-05-25T18:48:25.634Z,100.00
2019-05-25T18:51:15.727Z,100.00
2019-05-25T18:54:05.740Z,100.00
2019-05-25T18:56:55.579Z,100.00
2019-05-25T18:59:45.436Z,100.00
2019-05-25T19:02:35.232Z,100.00
2019-05-25T19:05:25.103Z,100.00
2019-05-25T19:08:15.022Z,100.00
2019-05-25T19:11:04.841Z,100.00
2019-05-25T19:13:55.150Z,100.00
2019-05-25T19:16:44.998Z,100.00
2019-05-25T19:19:34.820Z,100.00
2019-05-25T19:22:24.587Z,100.00
2019-05-25T19:25:14.731Z,100.00
2019-05-25T19:30:48.151Z,100.00
2019-05-25T19:33:37.908Z,100.00
2019-05-25T19:36:20.544Z,100.00
2019-05-25T19:39:10.292Z,100.00
2019-05-25T19:41:52.885Z,100.00
2019-05-25T19:44:42.630Z,100.00
2019-05-25T19:47:25.300Z,100.00
2019-05-25T19:50:15.316Z,100.00
2019-05-25T19:52:58.909Z,100.00
2019-05-25T19:55:29.550Z,100.00
2019-05-25T19:58:19.251Z,100.00
2019-05-25T20:01:03.392Z,100.00
2019-05-25T20:03:57.197Z,100.00
2019-05-25T20:06:37.284Z,100.00
2019-05-25T20:09:27.144Z,100.00
2019-05-25T20:12:16.923Z,100.00
2019-05-25T20:18:03.792Z,100.00
2019-05-25T20:20:53.553Z,100.00
2019-05-25T20:26:39.033Z,100.00
2019-05-25T20:29:09.904Z,100.00
2019-05-25T20:31:40.541Z,100.00
2019-05-25T20:34:30.288Z,100.00
2019-05-25T20:37:14.649Z,100.00
2019-05-25T20:39:58.810Z,100.00
2019-05-25T20:54:42.864Z,100.00
2019-05-25T20:57:32.808Z,100.00
2019-05-25T21:00:24.272Z,100.00
2019-05-25T21:03:07.610Z,100.00
2019-05-25T21:05:57.417Z,100.00
2019-05-25T21:08:47.241Z,100.00
2019-05-25T21:11:37.447Z,100.00
2019-05-25T21:14:27.174Z,100.00
2019-05-25T21:17:16.978Z,100.00
2019-05-25T21:20:06.821Z,100.00
2019-05-25T21:23:09.361Z,100.00
2019-05-25T21:25:51.746Z,100.00
2019-05-25T21:28:41.473Z,100.00
2019-05-25T21:31:24.084Z,100.00
2019-05-25T21:34:14.293Z,100.00
2019-05-25T21:36:56.662Z,100.00
2019-05-25T21:39:46.353Z,100.00
2019-05-25T21:42:29.013Z,100.00
2019-05-25T21:45:18.859Z,100.00
2019-05-25T21:47:49.672Z,100.00
2019-05-25T21:50:58.510Z,100.00
2019-05-25T21:53:41.501Z,100.00
2019-05-25T21:56:31.205Z,100.00
2019-05-25T21:59:13.529Z,100.00
2019-05-25T22:02:03.303Z,100.00
2019-05-25T22:04:48.669Z,100.00
2019-05-25T22:10:39.485Z,100.00
2019-05-25T22:13:29.205Z,100.00
2019-05-25T22:16:11.814Z,100.00
2019-05-25T22:19:01.550Z,100.00
2019-05-25T22:21:46.045Z,100.00
2019-05-25T22:24:35.581Z,100.00
2019-05-25T22:27:18.361Z,100.00
2019-05-25T22:30:08.137Z,100.00
2019-05-25T22:32:50.128Z,100.00
2019-05-25T22:35:39.865Z,100.00
2019-05-25T22:41:13.815Z,100.00
2019-05-25T22:43:44.596Z,100.00
2019-05-25T22:46:34.299Z,100.00
2019-05-25T22:49:18.331Z,100.00
2019-05-25T22:52:02.210Z,100.00
2019-05-25T22:54:45.131Z,100.00
2019-05-25T22:57:34.874Z,100.00
2019-05-25T23:00:19.498Z,100.00
2019-05-25T23:03:03.811Z,100.00
2019-05-25T23:05:53.666Z,100.00
2019-05-25T23:08:43.570Z,100.00
2019-05-25T23:11:33.348Z,100.00
2019-05-25T23:14:23.170Z,100.00
2019-05-25T23:17:13.013Z,100.00
2019-05-25T23:20:02.816Z,100.00
2019-05-25T23:22:52.696Z,100.00
2019-05-25T23:28:46.173Z,100.00
2019-05-25T23:31:28.919Z,100.00
2019-05-25T23:34:18.654Z,100.00
2019-05-25T23:37:14.240Z,100.00
2019-05-25T23:39:52.151Z,100.00
2019-05-25T23:45:45.533Z,100.00
2019-05-25T23:48:28.024Z,100.00
2019-05-25T23:54:23.443Z,100.00
2019-05-25T23:57:06.289Z,100.00
2019-05-25T23:59:57.017Z,100.00
